^^
Grace C. Lehan Memorial Weather Station Historical Data
Daily Summary for August 12, 2021 Units:  English    Metric   Both
Daily Weekly Monthly Yearly
  High: Low: Average:
Temperature: 28.8 °F 13.1 °F 22.8 °F
Dew Point: 11.7 °F 4.3 °F 7.8 °F
Humidity: 68% 38% 53%
Wind Speed: 5.8mph 0mph 1mph
Wind Gust: 13mph - -
Wind- - South
Pressure: 30.35 in 30.26 in -
Precipitation: 0.01 in    
 
 
Tabular Data for August 12, 2021
Time Temperature Dew Point Pressure Wind Wind Speed Wind Gust Humidity Rainfall Rate (Hourly) solar
00:04 22.3 °F 10.9 °F 30.29 in WNW 3.2 mph 10 mph 61% 0.00 in 0 W/m2
00:09 22.2 °F 11 °F 30.30 in WNW 4.1 mph 10 mph 61.6% 0.00 in 0 W/m2
00:14 22.1 °F 11.1 °F 30.30 in WNW 3.8 mph 10 mph 62% 0.00 in 0 W/m2
00:19 22 °F 11 °F 30.29 in WNW 3.6 mph 10 mph 62% 0.00 in 0 W/m2
00:24 21.9 °F 10.9 °F 30.29 in WNW 2.8 mph 10 mph 62% 0.00 in 0 W/m2
00:29 21.7 °F 10.7 °F 30.27 in NW 4.6 mph 13 mph 62% 0.00 in 0 W/m2
00:34 21.7 °F 10.7 °F 30.27 in NW 5.8 mph 13 mph 62% 0.00 in 0 W/m2
00:39 21.6 °F 10.6 °F 30.28 in NW 5.1 mph 12 mph 62% 0.00 in 0 W/m2
00:44 21.5 °F 10.5 °F 30.28 in NNW 2.3 mph 12 mph 62% 0.00 in 0 W/m2
00:49 21.3 °F 10.3 °F 30.28 in NNW 3.1 mph 12 mph 62% 0.00 in 0 W/m2
00:54 21.2 °F 10.2 °F 30.28 in NW 3.5 mph 12 mph 62% 0.00 in 0 W/m2
00:59 21.1 °F 10.3 °F 30.29 in NW 3.3 mph 12 mph 62.4% 0.00 in 0 W/m2
01:04 21 °F 10.3 °F 30.29 in WNW 2.5 mph 12 mph 63% 0.00 in 0 W/m2
01:09 20.8 °F 10.2 °F 30.29 in WNW 3.5 mph 9 mph 63% 0.00 in 0 W/m2
01:14 20.7 °F 10.1 °F 30.30 in NW 2.4 mph 9 mph 63% 0.00 in 0 W/m2
01:19 20.6 °F 10 °F 30.29 in NW 0.8 mph 9 mph 63% 0.00 in 0 W/m2
01:24 20.4 °F 9.8 °F 30.29 in NW 2.4 mph 9 mph 63% 0.00 in 0 W/m2
01:29 20.2 °F 9.9 °F 30.30 in NW 2.2 mph 9 mph 63.5% 0.00 in 0 W/m2
01:34 20.1 °F 9.9 °F 30.30 in NW 2.7 mph 9 mph 64% 0.00 in 0 W/m2
01:39 19.9 °F 9.7 °F 30.30 in Calm   5 mph 64% 0.00 in 0 W/m2
01:44 19.8 °F 9.6 °F 30.30 in Calm   5 mph 64% 0.00 in 0 W/m2
01:49 19.6 °F 9.5 °F 30.30 in Calm   5 mph 64% 0.00 in 0 W/m2
01:54 19.5 °F 9.3 °F 30.30 in NW 0.6 mph 5 mph 64% 0.00 in 0 W/m2
01:59 19.4 °F 9.4 °F 30.30 in NW 2.2 mph 5 mph 64.4% 0.00 in 0 W/m2
02:04 19.3 °F 9.4 °F 30.29 in WNW 4.1 mph 11 mph 65% 0.00 in 0 W/m2
02:09 19.2 °F 9.1 °F 30.29 in NW 2.1 mph 11 mph 64.1% 0.00 in 0 W/m2
02:14 19.1 °F 9 °F 30.29 in WNW 1.4 mph 11 mph 64% 0.00 in 0 W/m2
02:19 19.1 °F 8.9 °F 30.29 in WNW 2.1 mph 11 mph 64% 0.00 in 0 W/m2
02:24 19 °F 8.9 °F 30.29 in North 0.8 mph 11 mph 64% 0.00 in 0 W/m2
02:29 19 °F 8.8 °F 30.29 in North 1.7 mph 11 mph 64% 0.00 in 0 W/m2
02:34 18.9 °F 8.7 °F 30.29 in NNW 3.4 mph 11 mph 63.8% 0.00 in 0 W/m2
02:39 18.8 °F 8.3 °F 30.29 in NNW 3.3 mph 7 mph 63% 0.00 in 0 W/m2
02:44 18.8 °F 8.3 °F 30.28 in NNW 4.1 mph 10 mph 63% 0.00 in 0 W/m2
02:49 18.8 °F 8.3 °F 30.28 in NNW 2.8 mph 10 mph 63% 0.00 in 0 W/m2
02:54 18.8 °F 8.3 °F 30.29 in NNW 1.5 mph 10 mph 63% 0.00 in 0 W/m2
02:59 18.8 °F 8.3 °F 30.28 in North 0.9 mph 10 mph 63% 0.00 in 0 W/m2
03:04 18.7 °F 8.2 °F 30.28 in North 1.4 mph 10 mph 63% 0.00 in 0 W/m2
03:09 18.6 °F 8.2 °F 30.28 in North 0.8 mph 4 mph 63.4% 0.00 in 0 W/m2
03:14 18.5 °F 8 °F 30.29 in North 0.6 mph 4 mph 63% 0.00 in 0 W/m2
03:19 18.4 °F 7.9 °F 30.29 in WNW 1.4 mph 6 mph 63% 0.00 in 0 W/m2
03:24 18.2 °F 7.8 °F 30.29 in NW 2 mph 6 mph 63% 0.00 in 0 W/m2
03:29 18.1 °F 7.4 °F 30.29 in NW 2.9 mph 7 mph 62.3% 0.00 in 0 W/m2
03:34 18 °F 7.3 °F 30.29 in NNW 2.5 mph 7 mph 62.4% 0.00 in 0 W/m2
03:39 17.9 °F 7.4 °F 30.30 in NNW 2.3 mph 6 mph 62.7% 0.00 in 0 W/m2
03:44 17.8 °F 7 °F 30.31 in Calm   6 mph 62% 0.00 in 0 W/m2
03:49 17.7 °F 6.9 °F 30.31 in NNW 0.9 mph 6 mph 62% 0.00 in 0 W/m2
03:54 17.5 °F 6.8 °F 30.31 in NNW 0.8 mph 6 mph 62% 0.00 in 0 W/m2
03:59 17.3 °F 6.7 °F 30.31 in NNW 1.3 mph 6 mph 62.3% 0.00 in 0 W/m2
04:04 17.2 °F 6.8 °F 30.31 in NNW 2.7 mph 6 mph 63% 0.00 in 0 W/m2
04:09 17 °F 6.6 °F 30.31 in NNW 1.8 mph 5 mph 63% 0.00 in 0 W/m2
04:14 16.9 °F 6.5 °F 30.31 in Calm   5 mph 63% 0.00 in 0 W/m2
04:19 16.8 °F 6.4 °F 30.31 in Calm   5 mph 63% 0.00 in 0 W/m2
04:24 16.7 °F 6.3 °F 30.31 in Calm   5 mph 63% 0.00 in 0 W/m2
04:29 16.5 °F 6.2 °F 30.31 in Calm   5 mph 63.2% 0.00 in 0 W/m2
04:34 16.4 °F 6.4 °F 30.31 in Calm   5 mph 64% 0.00 in 0 W/m2
04:39 16.3 °F 6.2 °F 30.31 in Calm     64% 0.00 in 0 W/m2
04:44 16.2 °F 6.2 °F 30.32 in Calm     64.3% 0.00 in 0 W/m2
04:49 16 °F 6.3 °F 30.32 in Calm     65% 0.00 in 0 W/m2
04:54 15.9 °F 6.2 °F 30.32 in NNW 1 mph 3 mph 65% 0.00 in 0 W/m2
04:59 15.7 °F 6.1 °F 30.32 in NNW 0.8 mph 3 mph 65% 0.00 in 0 W/m2
05:04 15.7 °F 6.2 °F 30.32 in Calm   3 mph 65.5% 0.00 in 0 W/m2
05:09 15.5 °F 6.2 °F 30.32 in NNW 1.8 mph 3 mph 66% 0.00 in 0 W/m2
05:14 15.3 °F 6 °F 30.32 in NNW 1.8 mph 3 mph 66% 0.00 in 0 W/m2
05:19 15.2 °F 6 °F 30.32 in NNW 2.4 mph 4 mph 66.5% 0.00 in 0 W/m2
05:24 15 °F 6 °F 30.32 in NNW 2.2 mph 4 mph 67% 0.00 in 0 W/m2
05:29 14.9 °F 5.9 °F 30.32 in NNW 1.7 mph 4 mph 67% 0.00 in 0 W/m2
05:34 14.7 °F 5.8 °F 30.32 in Calm   4 mph 67% 0.00 in 0 W/m2
05:39 14.6 °F 5.6 °F 30.32 in NNW 0.8 mph 4 mph 67% 0.00 in 0 W/m2
05:44 14.5 °F 5.6 °F 30.33 in NNW 1.3 mph 4 mph 67% 0.00 in 0 W/m2
05:49 14.4 °F 5.1 °F 30.33 in NNW 1.6 mph 4 mph 66% 0.00 in 0 W/m2
05:54 14.3 °F 5.1 °F 30.33 in North 2.1 mph 5 mph 66% 0.00 in 0 W/m2
05:59 14.3 °F 5 °F 30.33 in North 0.3 mph 5 mph 66% 0.00 in 0 W/m2
06:04 14.2 °F 4.9 °F 30.33 in Calm   5 mph 66% 0.00 in 0 W/m2
06:09 14.1 °F 4.9 °F 30.33 in North 0.3 mph 2 mph 66% 0.00 in 0 W/m2
06:14 14 °F 4.5 °F 30.33 in North 0.7 mph 3 mph 65.2% 0.00 in 0 W/m2
06:19 13.9 °F 4.4 °F 30.33 in Calm   3 mph 65% 0.00 in 0 W/m2
06:24 13.9 °F 4.4 °F 30.33 in Calm   3 mph 65.3% 0.00 in 0 W/m2
06:29 13.8 °F 4.5 °F 30.33 in Calm   3 mph 66% 0.00 in 0 W/m2
06:34 13.7 °F 4.5 °F 30.33 in Calm   3 mph 66.2% 0.00 in 0 W/m2
06:39 13.6 °F 4.6 °F 30.33 in Calm     66.9% 0.00 in 0 W/m2
06:44 13.4 °F 4.5 °F 30.32 in Calm     67% 0.00 in 0 W/m2
06:49 13.3 °F 4.5 °F 30.33 in Calm     67.3% 0.00 in 0 W/m2
06:54 13.2 °F 4.5 °F 30.33 in Calm     67.4% 0.00 in 5 W/m2
06:59 13.1 °F 4.5 °F 30.33 in Calm     67.8% 0.00 in 9 W/m2
07:04 13.1 °F 4.5 °F 30.33 in North 0.5 mph 3 mph 68% 0.00 in 11 W/m2
07:09 13.1 °F 4.5 °F 30.34 in North 2 mph 3 mph 68% 0.00 in 23 W/m2
07:14 13.3 °F 4.5 °F 30.33 in North 2.9 mph 6 mph 67.3% 0.00 in 28 W/m2
07:19 13.6 °F 4.6 °F 30.33 in NNW 3.6 mph 6 mph 66.5% 0.00 in 21 W/m2
07:24 14 °F 4.4 °F 30.33 in NNW 2.9 mph 6 mph 65% 0.00 in 21 W/m2
07:29 14.3 °F 4.3 °F 30.33 in Calm   6 mph 64% 0.00 in 37 W/m2
07:34 14.5 °F 4.3 °F 30.33 in North 0.4 mph 6 mph 63.3% 0.00 in 37 W/m2
07:39 14.8 °F 4.3 °F 30.34 in Calm   3 mph 62.6% 0.00 in 81 W/m2
07:44 15.3 °F 4.4 °F 30.34 in North 0.3 mph 4 mph 61.3% 0.00 in 42 W/m2
07:49 15.8 °F 4.4 °F 30.34 in Calm   4 mph 60% 0.00 in 46 W/m2
07:54 16.2 °F 4.5 °F 30.34 in Calm   4 mph 59.4% 0.00 in 95 W/m2
07:59 16.5 °F 5 °F 30.35 in Calm   4 mph 59.8% 0.00 in 84 W/m2
08:00 16.7 °F 4.9 °F 30.35 in Calm   4 mph 59% 0.00 in 58 W/m2
08:09 17.1 °F 4.5 °F 30.35 in Calm     57% 0.00 in 127 W/m2
08:14 17.3 °F 4.6 °F 30.35 in Calm     56.9% 0.00 in 116 W/m2
08:19 17.5 °F 4.6 °F 30.34 in North 0.3 mph 5 mph 56.4% 0.00 in 118 W/m2
08:24 17.8 °F 5.1 °F 30.35 in North 1.9 mph 5 mph 56.8% 0.00 in 127 W/m2
08:29 18.2 °F 4.9 °F 30.35 in NNW 1.9 mph 6 mph 55.3% 0.00 in 144 W/m2
08:34 18.6 °F 5 °F 30.34 in NNW 4 mph 10 mph 54.6% 0.00 in 211 W/m2
08:39 19 °F 4.7 °F 30.34 in NNW 1 mph 10 mph 53% 0.00 in 248 W/m2
08:44 19.6 °F 4.9 °F 30.35 in NNW 2.7 mph 10 mph 52.3% 0.00 in 260 W/m2
08:49 20.3 °F 5.2 °F 30.35 in NNW 3.1 mph 10 mph 51.3% 0.00 in 234 W/m2
08:54 21 °F 5.6 °F 30.35 in NNW 3.2 mph 10 mph 50.6% 0.00 in 234 W/m2
08:59 21.5 °F 5.2 °F 30.35 in NNW 2 mph 10 mph 48.7% 0.00 in 128 W/m2
09:04 21.6 °F 5.2 °F 30.35 in North 2 mph 10 mph 48.5% 0.00 in 206 W/m2
09:09 21.8 °F 5.1 °F 30.35 in North 2.3 mph 7 mph 48% 0.00 in 243 W/m2
09:14 22 °F 5.4 °F 30.35 in North 2 mph 7 mph 48.1% 0.00 in 334 W/m2
09:19 22.5 °F 5.7 °F 30.35 in North 2.7 mph 7 mph 47.9% 0.00 in 299 W/m2
09:24 22.6 °F 5.3 °F 30.34 in NNW 4.2 mph 10 mph 46.7% 0.00 in 262 W/m2
09:29 22.7 °F 5.4 °F 30.34 in NNW 3.7 mph 10 mph 46.8% 0.00 in 264 W/m2
09:34 22.7 °F 4.8 °F 30.34 in NNE 1.2 mph 10 mph 45.7% 0.00 in 352 W/m2
09:39 22.6 °F 5.3 °F 30.33 in NE 0.6 mph 7 mph 46.7% 0.00 in 352 W/m2
09:44 22.9 °F 5.3 °F 30.33 in NE 0.4 mph 7 mph 46.2% 0.00 in 334 W/m2
09:49 22.8 °F 5.1 °F 30.34 in NNE 1.2 mph 7 mph 45.8% 0.00 in 218 W/m2
09:54 22.6 °F 4.5 °F 30.33 in ENE 1 mph 7 mph 44.9% 0.00 in 171 W/m2
09:59 22.4 °F 4.8 °F 30.34 in NNE 0.7 mph 7 mph 46.1% 0.00 in 290 W/m2
10:04 22.4 °F 5 °F 30.34 in North 1 mph 7 mph 46.4% 0.00 in 339 W/m2
10:09 22.7 °F 4.8 °F 30.34 in North 0.3 mph 5 mph 45.7% 0.00 in 248 W/m2
10:14 22.8 °F 4.4 °F 30.33 in NNE 0.3 mph 5 mph 44.5% 0.00 in 373 W/m2
10:19 23.2 °F 5.5 °F 30.34 in NNE 0.9 mph 5 mph 46.1% 0.00 in 443 W/m2
10:24 23.8 °F 6.1 °F 30.34 in North 1.2 mph 6 mph 46.2% 0.00 in 513 W/m2
10:29 24.3 °F 6.1 °F 30.33 in North 0.6 mph 6 mph 45.2% 0.00 in 584 W/m2
10:34 24.8 °F 6.3 °F 30.33 in Calm   6 mph 44.7% 0.00 in 663 W/m2
10:39 25.3 °F 6.6 °F 30.34 in NE 0.1 mph 1 mph 44.3% 0.00 in 698 W/m2
10:44 25.9 °F 6.7 °F 30.33 in NE 0.9 mph 5 mph 43.3% 0.00 in 679 W/m2
10:49 27.1 °F 8.7 °F 30.33 in NE 0.5 mph 5 mph 45.1% 0.00 in 631 W/m2
10:54 28 °F 8.7 °F 30.33 in NE 0.5 mph 5 mph 43.6% 0.00 in 624 W/m2
10:59 28.8 °F 8.9 °F 30.33 in NE 0.2 mph 5 mph 42.6% 0.00 in 642 W/m2
11:04 28.7 °F 7 °F 30.32 in East 1.4 mph 5 mph 39.2% 0.00 in 765 W/m2
11:09 28.6 °F 7.2 °F 30.32 in ENE 1.4 mph 5 mph 39.7% 0.00 in 765 W/m2
11:14 28.2 °F 6.8 °F 30.32 in NNE 0.6 mph 5 mph 39.7% 0.00 in 339 W/m2
11:19 27.8 °F 7.3 °F 30.32 in NE 0.5 mph 5 mph 41.2% 0.00 in 276 W/m2
11:24 27.6 °F 6.9 °F 30.32 in Calm   5 mph 40.9% 0.00 in 285 W/m2
11:29 27.2 °F 6.4 °F 30.32 in ENE 1 mph 5 mph 40.5% 0.00 in 287 W/m2
11:34 26.9 °F 6.3 °F 30.32 in NE 0.2 mph 5 mph 40.9% 0.00 in 295 W/m2
11:39 26.8 °F 6.3 °F 30.32 in East 1.5 mph 4 mph 41.1% 0.00 in 339 W/m2
11:44 26.5 °F 5.7 °F 30.32 in ENE 2.1 mph 6 mph 40.4% 0.00 in 403 W/m2
11:49 26.7 °F 7.1 °F 30.31 in NNE 1.1 mph 6 mph 42.8% 0.00 in 403 W/m2
11:54 27.2 °F 8.1 °F 30.30 in NNE 0.8 mph 6 mph 43.8% 0.00 in 339 W/m2
11:59 27.8 °F 7.8 °F 30.30 in NE 0.5 mph 6 mph 42.2% 0.00 in 369 W/m2
12:00 28.1 °F 8 °F 30.30 in Calm   6 mph 42% 0.00 in 248 W/m2
12:09 28.6 °F 7.4 °F 30.29 in NE 0.4 mph 2 mph 40.1% 0.00 in 211 W/m2
12:14 28.7 °F 8.1 °F 30.29 in NE 1.2 mph 4 mph 41.3% 0.00 in 200 W/m2
12:19 28.8 °F 7.7 °F 30.28 in NE 0.9 mph 5 mph 40.3% 0.00 in 213 W/m2
12:24 28.4 °F 6 °F 30.27 in NE 1 mph 5 mph 38% 0.01 in 262 W/m2
12:29 28.2 °F 7.6 °F 30.27 in NNE 0.2 mph 5 mph 41% 0.01 in 362 W/m2
12:34 28.3 °F 7 °F 30.27 in NNE 0.1 mph 5 mph 39.8% 0.01 in 283 W/m2
12:39 28.3 °F 6.7 °F 30.27 in NE 0.3 mph 2 mph 39.4% 0.01 in 287 W/m2
12:44 28.2 °F 6.9 °F 30.27 in East 0.4 mph 3 mph 39.9% 0.01 in 304 W/m2
12:49 28.1 °F 7.5 °F 30.26 in East 0.7 mph 4 mph 41% 0.01 in 285 W/m2
12:54 28.1 °F 7.4 °F 30.26 in East 0.6 mph 4 mph 40.9% 0.01 in 241 W/m2
12:59 28.1 °F 7.5 °F 30.27 in East 0.4 mph 4 mph 41.1% 0.01 in 285 W/m2
13:04 28.4 °F 9 °F 30.27 in ENE 0.8 mph 4 mph 43.5% 0.01 in 274 W/m2
13:09 28.6 °F 8.3 °F 30.26 in ENE 0.2 mph 4 mph 41.7% 0.01 in 290 W/m2
13:14 28.6 °F 7.9 °F 30.26 in ENE 0.7 mph 4 mph 40.9% 0.01 in 313 W/m2
13:19 28.6 °F 7.6 °F 30.26 in ENE 1.3 mph 4 mph 40.4% 0.01 in 299 W/m2
13:24 28.4 °F 7.2 °F 30.26 in ENE 1.1 mph 4 mph 40% 0.01 in 288 W/m2
13:29 28.2 °F 7.4 °F 30.26 in ENE 0.7 mph 4 mph 40.7% 0.01 in 253 W/m2
13:34 28 °F 7.7 °F 30.26 in East 0.9 mph 4 mph 41.5% 0.01 in 253 W/m2
13:39 28 °F 7.9 °F 30.26 in ESE 0.2 mph 3 mph 42.1% 0.00 in 246 W/m2
13:44 27.9 °F 7.8 °F 30.26 in Calm   3 mph 42% 0.00 in 243 W/m2
13:49 27.9 °F 7.5 °F 30.26 in ESE 0.2 mph 3 mph 41.4% 0.00 in 237 W/m2
13:54 27.9 °F 7.7 °F 30.27 in ESE 0.5 mph 3 mph 42% 0.00 in 239 W/m2
13:59 28 °F 8.7 °F 30.27 in ESE 0.8 mph 3 mph 43.5% 0.00 in 232 W/m2
14:04 28.1 °F 7.8 °F 30.27 in ESE 0.8 mph 3 mph 41.7% 0.00 in 232 W/m2
14:09 28 °F 7.8 °F 30.28 in East 1 mph 4 mph 41.9% 0.00 in 230 W/m2
14:14 27.9 °F 7.9 °F 30.27 in East 0.7 mph 4 mph 42.2% 0.00 in 211 W/m2
14:19 27.9 °F 8.1 °F 30.27 in East 0.9 mph 4 mph 42.6% 0.00 in 216 W/m2
14:24 27.9 °F 8.4 °F 30.26 in East 1.1 mph 4 mph 43.1% 0.00 in 227 W/m2
14:29 28.1 °F 9.3 °F 30.26 in ENE 1.3 mph 5 mph 44.5% 0.00 in 236 W/m2
14:34 28.3 °F 9 °F 30.27 in ENE 0.6 mph 5 mph 43.5% 0.00 in 195 W/m2
14:39 28.4 °F 9.2 °F 30.27 in ENE 0.2 mph 3 mph 43.8% 0.00 in 167 W/m2
14:44 28.6 °F 10.1 °F 30.27 in ENE 0.7 mph 4 mph 45.3% 0.00 in 165 W/m2
14:49 28.7 °F 9.6 °F 30.27 in ENE 0.6 mph 4 mph 44.2% 0.00 in 160 W/m2
14:54 28.7 °F 9.1 °F 30.27 in ENE 0.1 mph 4 mph 43.2% 0.00 in 158 W/m2
14:59 28.6 °F 8.8 °F 30.27 in ENE 0.2 mph 4 mph 42.6% 0.00 in 146 W/m2
15:04 28.5 °F 8.4 °F 30.28 in ENE 0.6 mph 4 mph 42.1% 0.00 in 135 W/m2
15:09 28.4 °F 9 °F 30.28 in ENE 0.7 mph 3 mph 43.4% 0.00 in 144 W/m2
15:14 28.4 °F 9.3 °F 30.28 in ENE 1.1 mph 3 mph 44.1% 0.00 in 153 W/m2
15:19 28.3 °F 8.1 °F 30.28 in ENE 0.7 mph 3 mph 42% 0.00 in 149 W/m2
15:24 28.1 °F 7.6 °F 30.27 in ENE 0.6 mph 3 mph 41.3% 0.00 in 104 W/m2
15:29 28 °F 8.8 °F 30.27 in ENE 0.6 mph 4 mph 43.8% 0.00 in 111 W/m2
15:34 28 °F 8.4 °F 30.27 in East 1.6 mph 4 mph 43.1% 0.00 in 114 W/m2
15:39 28 °F 9.1 °F 30.28 in ENE 0.7 mph 4 mph 44.4% 0.00 in 114 W/m2
15:44 28 °F 9.7 °F 30.28 in ENE 0.6 mph 4 mph 45.4% 0.00 in 107 W/m2
15:49 28.1 °F 8.7 °F 30.28 in ENE 1.3 mph 5 mph 43.3% 0.00 in 100 W/m2
15:54 28.1 °F 9.4 °F 30.28 in ENE 0.8 mph 5 mph 44.8% 0.00 in 88 W/m2
15:59 28.1 °F 9.5 °F 30.28 in ENE 1.3 mph 5 mph 45% 0.00 in 77 W/m2
16:04 28.2 °F 9.4 °F 30.27 in Calm   5 mph 44.5% 0.00 in 67 W/m2
16:09 28.2 °F 9.6 °F 30.28 in ENE 0.7 mph 3 mph 45% 0.00 in 60 W/m2
16:14 28.2 °F 9.6 °F 30.28 in NE 1 mph 5 mph 45.1% 0.00 in 49 W/m2
16:19 28.2 °F 9.6 °F 30.27 in NE 0.4 mph 5 mph 45% 0.00 in 47 W/m2
16:24 28.1 °F 9.2 °F 30.28 in NE 0.3 mph 5 mph 44.2% 0.00 in 58 W/m2
16:29 28.1 °F 9.7 °F 30.28 in NE 0.5 mph 5 mph 45.5% 0.00 in 58 W/m2
16:34 28 °F 9.9 °F 30.28 in Calm   5 mph 46% 0.00 in 37 W/m2
16:39 28 °F 9.8 °F 30.28 in Calm     45.9% 0.00 in 28 W/m2
16:44 28 °F 9.9 °F 30.28 in Calm     45.9% 0.00 in 23 W/m2
16:49 27.9 °F 9 °F 30.28 in Calm     44.3% 0.00 in 18 W/m2
16:52 27.8 °F 8.7 °F 30.28 in Calm     43.8% 0.00 in 14 W/m2
17:00 27.6 °F 9.1 °F 30.27 in Calm     45% 0.00 in 20 W/m2
17:30 27.4 °F 9.8 °F 30.29 in Calm     47% 0.00 in 2 W/m2
18:00 27.2 °F 10.6 °F 30.30 in Calm     49% 0.00 in 0 W/m2
18:30 27 °F 9.9 °F 30.30 in Calm     48% 0.00 in 0 W/m2
19:00 26.8 °F 10.7 °F 30.30 in Calm     50% 0.00 in 0 W/m2
19:30 26.8 °F 10.7 °F 30.30 in Calm     50% 0.00 in 0 W/m2
20:04 26.4 °F 10.8 °F 30.30 in Calm     51.3% 0.00 in 0 W/m2
20:09 26.3 °F 11.3 °F 30.28 in Calm     52.6% 0.00 in 0 W/m2
20:14 26.1 °F 11.7 °F 30.29 in Calm     54% 0.00 in 0 W/m2
20:19 26 °F 11.6 °F 30.28 in Calm     54% 0.00 in 0 W/m2
20:24 25.8 °F 11.5 °F 30.28 in Calm     54% 0.00 in 0 W/m2
20:29 25.7 °F 11.3 °F 30.29 in Calm     54% 0.00 in 0 W/m2
20:34 25.6 °F 11 °F 30.29 in Calm     53.5% 0.00 in 0 W/m2
20:39 25.5 °F 10.5 °F 30.29 in Calm     52.4% 0.00 in 0 W/m2
20:44 25.4 °F 9.9 °F 30.29 in Calm     51.1% 0.00 in 0 W/m2
20:49 25.4 °F 10 °F 30.30 in Calm     51.3% 0.00 in 0 W/m2
20:54 25.4 °F 9.8 °F 30.29 in Calm     51% 0.00 in 0 W/m2
20:59 25.4 °F 10.3 °F 30.29 in Calm     52% 0.00 in 0 W/m2
21:04 25.5 °F 10.3 °F 30.29 in Calm     51.8% 0.00 in 0 W/m2
21:09 25.6 °F 9.8 °F 30.29 in Calm     50.6% 0.00 in 0 W/m2
21:14 25.6 °F 10 °F 30.30 in NE 0.1 mph 1 mph 51% 0.00 in 0 W/m2
21:19 25.7 °F 9.9 °F 30.30 in NE 0.1 mph 1 mph 50.5% 0.00 in 0 W/m2
21:24 25.8 °F 9.6 °F 30.30 in Calm   1 mph 49.8% 0.00 in 0 W/m2
21:29 25.9 °F 10.5 °F 30.30 in NE 0.2 mph 2 mph 51.5% 0.00 in 0 W/m2
21:34 25.9 °F 10.6 °F 30.31 in NE 0.5 mph 2 mph 51.8% 0.00 in 0 W/m2
21:39 26 °F 10 °F 30.30 in NE 0.1 mph 2 mph 50.2% 0.00 in 0 W/m2
21:44 26 °F 9.7 °F 30.30 in NE 0.3 mph 2 mph 49.6% 0.00 in 0 W/m2
21:49 26 °F 9.6 °F 30.31 in Calm   2 mph 49.3% 0.00 in 0 W/m2
21:54 26 °F 9.7 °F 30.31 in NE 0.2 mph 2 mph 49.4% 0.00 in 0 W/m2
21:59 26 °F 9.5 °F 30.31 in Calm   2 mph 49% 0.00 in 0 W/m2
22:04 26 °F 9.1 °F 30.30 in Calm   2 mph 48.1% 0.00 in 0 W/m2
22:09 25.9 °F 9.3 °F 30.31 in Calm     48.7% 0.00 in 0 W/m2
22:14 25.9 °F 9.4 °F 30.31 in Calm   1 mph 49% 0.00 in 0 W/m2
22:19 26 °F 9.3 °F 30.31 in NE 0.2 mph 2 mph 48.6% 0.00 in 0 W/m2
22:24 26 °F 9.2 °F 30.31 in Calm   2 mph 48.4% 0.00 in 0 W/m2
22:29 26 °F 9.7 °F 30.31 in Calm   2 mph 49.6% 0.00 in 0 W/m2
22:34 25.9 °F 9.4 °F 30.30 in Calm   2 mph 49.1% 0.00 in 0 W/m2
22:39 25.8 °F 9 °F 30.30 in Calm   1 mph 48.3% 0.00 in 0 W/m2
22:44 25.8 °F 8.8 °F 30.30 in NE 1 mph 3 mph 48% 0.00 in 0 W/m2
22:49 25.8 °F 8.8 °F 30.30 in NE 0.6 mph 4 mph 48% 0.00 in 0 W/m2
22:54 25.8 °F 9.1 °F 30.31 in NE 0.5 mph 4 mph 48.6% 0.00 in 0 W/m2
22:59 25.8 °F 8.9 °F 30.31 in NNE 0.8 mph 4 mph 48% 0.00 in 0 W/m2
23:04 25.8 °F 8.8 °F 30.32 in Calm     48% 0.00 in 0 W/m2
23:09 25.8 °F 9.5 °F 30.32 in NNE 0.1 mph 2 mph 49.4% 0.00 in 0 W/m2
23:14 25.8 °F 9.7 °F 30.32 in NNE 0.1 mph 2 mph 50% 0.00 in 0 W/m2
23:19 25.7 °F 9.7 °F 30.31 in Calm   2 mph 50% 0.00 in 0 W/m2
23:24 25.6 °F 9.8 °F 30.31 in Calm   2 mph 50.5% 0.00 in 0 W/m2
23:29 25.6 °F 9.8 °F 30.31 in Calm   2 mph 50.6% 0.00 in 0 W/m2
23:34 25.6 °F 9.6 °F 30.31 in Calm   2 mph 50% 0.00 in 0 W/m2
23:39 25.6 °F 9.4 °F 30.31 in Calm     49.8% 0.00 in 0 W/m2
23:44 25.6 °F 9.8 °F 30.32 in Calm     50.6% 0.00 in 0 W/m2
23:49 25.5 °F 9.4 °F 30.32 in Calm   2 mph 49.8% 0.00 in 0 W/m2
23:54 25.6 °F 9.2 °F 30.32 in Calm   2 mph 49.3% 0.00 in 0 W/m2
23:59 25.6 °F 9.1 °F 30.33 in Calm   2 mph 49% 0.00 in 0 W/m2
Hartford County Weather
Compliments of Weather Underground - 2 mb